Time;durP1;ratioP1;P1;durP2;ratioP2;P2;SDS_P1;SDS_P2;PMS_P1;PMS_P2;Temp;Humidity;BMP_temperature;BMP_pressure;BME280_temperature;BME280_humidity;BME280_pressure;Samples;Min_cycle;Max_cycle;Signal;HPM_P1;HPM_P2
2024/02/10 00:00:36;;;;;;;2.78;1.40;;;21.00;52.90;;;;;;5068976;28;20089;-69
2024/02/10 00:03:02;;;;;;;2.47;1.40;;;20.90;52.90;;;;;;5079603;28;20044;-68
2024/02/10 00:05:28;;;;;;;2.63;1.50;;;20.90;52.90;;;;;;5077134;28;20032;-67
2024/02/10 00:07:57;;;;;;;2.60;1.40;;;20.90;52.80;;;;;;5079707;28;20302;-62
2024/02/10 00:10:25;;;;;;;2.55;1.35;;;20.90;52.80;;;;;;5076547;28;20472;-62
2024/02/10 00:12:57;;;;;;;2.60;1.42;;;20.90;52.80;;;;;;5060147;28;20110;-62
2024/02/10 00:15:23;;;;;;;2.75;1.40;;;20.90;52.80;;;;;;5077983;28;20044;-61
2024/02/10 00:17:49;;;;;;;3.25;1.40;;;20.90;52.80;;;;;;5079470;28;20124;-61
2024/02/10 00:20:20;;;;;;;3.10;1.40;;;20.90;52.70;;;;;;5067773;28;20468;-63
2024/02/10 00:22:47;;;;;;;2.25;1.25;;;20.80;52.70;;;;;;5077051;28;20020;-61
2024/02/10 00:25:16;;;;;;;2.53;1.40;;;20.90;52.70;;;;;;5077900;28;20039;-62
2024/02/10 00:27:46;;;;;;;2.20;1.43;;;20.80;52.70;;;;;;5078552;28;20036;-61
2024/02/10 00:30:13;;;;;;;2.67;1.40;;;20.90;52.70;;;;;;5069868;28;20028;-62
2024/02/10 00:32:39;;;;;;;2.03;1.08;;;20.90;52.70;;;;;;5078534;28;20012;-63
2024/02/10 00:35:06;;;;;;;2.30;1.30;;;20.90;52.60;;;;;;5076446;28;20025;-63
2024/02/10 00:37:32;;;;;;;2.25;1.33;;;20.90;52.60;;;;;;5081012;28;20024;-61
2024/02/10 00:40:00;;;;;;;2.10;1.25;;;20.90;52.60;;;;;;5079349;28;20032;-63
2024/02/10 00:42:28;;;;;;;2.15;1.20;;;20.80;52.60;;;;;;5076924;28;20110;-62
2024/02/10 00:44:59;;;;;;;2.30;1.40;;;20.80;52.60;;;;;;5080053;28;20384;-63
2024/02/10 00:47:28;;;;;;;1.40;1.00;;;20.80;52.50;;;;;;5078841;28;20035;-62
2024/02/10 00:50:00;;;;;;;3.05;1.27;;;20.80;52.50;;;;;;5078116;28;20025;-67
2024/02/10 00:52:25;;;;;;;2.22;1.20;;;20.80;52.50;;;;;;5080417;28;20028;-68
2024/02/10 00:54:51;;;;;;;2.80;1.35;;;20.80;52.50;;;;;;5080772;28;20032;-67
2024/02/10 00:57:16;;;;;;;2.55;1.40;;;20.80;52.50;;;;;;5083627;28;20131;-68
2024/02/10 00:59:44;;;;;;;2.50;1.33;;;20.80;52.40;;;;;;5081288;28;20441;-69
2024/02/10 01:02:17;;;;;;;2.17;1.25;;;20.80;52.50;;;;;;5081426;28;20098;-67
2024/02/10 01:04:43;;;;;;;1.80;1.10;;;20.80;52.40;;;;;;5081936;28;20491;-67
2024/02/10 01:07:09;;;;;;;2.22;1.30;;;20.80;52.40;;;;;;5080881;28;20031;-68
2024/02/10 01:09:38;;;;;;;2.47;1.35;;;20.80;52.40;;;;;;5082564;28;20029;-63
2024/02/10 01:12:05;;;;;;;2.25;1.30;;;20.70;52.40;;;;;;5082792;28;20024;-63
2024/02/10 01:14:31;;;;;;;2.25;1.40;;;20.70;52.30;;;;;;5081540;28;20051;-64
2024/02/10 01:16:57;;;;;;;1.95;1.20;;;20.70;52.30;;;;;;5079705;28;20028;-65
2024/02/10 01:19:25;;;;;;;2.00;1.27;;;20.70;52.30;;;;;;5057579;28;20123;-62
2024/02/10 01:21:54;;;;;;;2.10;1.30;;;20.70;52.30;;;;;;5081311;28;20023;-62
2024/02/10 01:24:21;;;;;;;2.42;1.40;;;20.70;52.30;;;;;;5084181;28;20089;-61
2024/02/10 01:26:47;;;;;;;2.08;1.15;;;20.70;52.30;;;;;;5080852;28;20025;-63
2024/02/10 01:29:12;;;;;;;1.92;1.10;;;20.70;52.30;;;;;;5061177;28;20081;-61
2024/02/10 01:31:41;;;;;;;1.88;1.08;;;20.60;52.30;;;;;;5080837;28;20441;-61
2024/02/10 01:34:08;;;;;;;2.30;1.13;;;20.70;52.30;;;;;;5080169;28;20729;-64
2024/02/10 01:36:34;;;;;;;2.08;1.20;;;20.70;52.30;;;;;;5080851;28;20527;-62
2024/02/10 01:39:00;;;;;;;1.70;1.02;;;20.70;52.30;;;;;;5081016;28;20032;-62
2024/02/10 01:41:28;;;;;;;2.67;1.27;;;20.70;52.30;;;;;;5081462;28;20033;-61
2024/02/10 01:43:54;;;;;;;2.38;1.30;;;20.70;52.80;;;;;;5080188;28;20107;-63
2024/02/10 01:46:22;;;;;;;1.70;1.02;;;20.60;52.80;;;;;;5082558;28;20563;-61
2024/02/10 01:48:49;;;;;;;2.38;1.20;;;20.60;52.20;;;;;;5080887;28;20487;-62
2024/02/10 01:51:17;;;;;;;2.33;1.20;;;20.60;52.20;;;;;;5079045;28;20036;-62
2024/02/10 01:53:44;;;;;;;2.80;1.27;;;20.60;52.30;;;;;;5079669;28;21000;-62
2024/02/10 01:56:11;;;;;;;2.15;1.13;;;20.60;52.20;;;;;;5081865;28;20449;-61
2024/02/10 01:58:40;;;;;;;1.92;1.10;;;20.60;52.30;;;;;;5080582;28;20017;-66
2024/02/10 02:01:05;;;;;;;1.88;1.20;;;20.60;52.20;;;;;;5079425;28;20084;-68
2024/02/10 02:03:31;;;;;;;1.85;1.05;;;20.60;52.80;;;;;;5079700;28;20028;-68
2024/02/10 02:05:58;;;;;;;2.05;1.20;;;20.60;52.20;;;;;;5079968;28;20036;-67
2024/02/10 02:08:24;;;;;;;1.95;1.20;;;20.60;52.30;;;;;;5080463;28;20054;-69
2024/02/10 02:10:49;;;;;;;2.33;1.27;;;20.60;52.30;;;;;;5063496;28;20649;-68
2024/02/10 02:13:21;;;;;;;2.80;1.20;;;20.60;52.30;;;;;;5081714;28;20119;-68
2024/02/10 02:15:47;;;;;;;1.92;1.20;;;20.50;52.20;;;;;;5081674;28;20498;-67
2024/02/10 02:18:14;;;;;;;1.80;1.20;;;20.50;52.20;;;;;;5082725;28;20119;-66
2024/02/10 02:20:46;;;;;;;2.00;1.20;;;20.50;52.20;;;;;;5080321;28;20020;-66
2024/02/10 02:23:18;;;;;;;2.75;1.33;;;20.50;52.20;;;;;;5079308;28;20484;-66
2024/02/10 02:25:49;;;;;;;2.15;1.15;;;20.50;52.20;;;;;;5079990;28;20030;-66
2024/02/10 02:28:19;;;;;;;1.95;1.10;;;20.50;52.20;;;;;;5079453;28;20032;-66
2024/02/10 02:30:45;;;;;;;;;;;20.50;52.20;;;;;;5081428;28;20040;-68
2024/02/10 02:33:11;;;;;;;2.42;1.15;;;20.50;52.20;;;;;;5079569;28;19904;-68
2024/02/10 02:35:43;;;;;;;2.00;1.10;;;20.50;52.30;;;;;;5080284;28;20553;-67
2024/02/10 02:38:10;;;;;;;2.10;1.20;;;20.50;52.20;;;;;;5081074;28;20024;-68
2024/02/10 02:40:35;;;;;;;1.58;1.02;;;20.50;52.30;;;;;;5078764;28;20028;-67
2024/02/10 02:43:04;;;;;;;1.98;1.13;;;20.50;52.30;;;;;;5079295;28;20035;-68
2024/02/10 02:45:30;;;;;;;1.67;1.10;;;20.40;52.30;;;;;;5079090;28;20054;-67
2024/02/10 02:48:01;;;;;;;1.83;1.10;;;20.40;52.20;;;;;;5078533;28;20028;-67
2024/02/10 02:50:31;;;;;;;3.30;1.38;;;20.40;52.20;;;;;;5058998;28;20047;-68
2024/02/10 02:53:02;;;;;;;2.03;1.10;;;20.40;52.20;;;;;;5081748;28;20035;-67
2024/02/10 02:55:28;;;;;;;1.67;1.10;;;20.40;52.30;;;;;;5078709;28;20509;-68
2024/02/10 02:57:55;;;;;;;2.15;1.20;;;20.40;52.30;;;;;;5079071;28;20031;-68
2024/02/10 03:00:21;;;;;;;1.80;1.10;;;20.40;52.30;;;;;;5080579;28;20020;-68
2024/02/10 03:02:48;;;;;;;1.88;1.10;;;20.40;52.30;;;;;;5080124;28;20021;-68
2024/02/10 03:05:14;;;;;;;2.35;1.10;;;20.40;52.80;;;;;;5060525;28;20119;-68
2024/02/10 03:07:44;;;;;;;2.05;1.25;;;20.40;52.30;;;;;;5079506;28;20028;-67
2024/02/10 03:10:10;;;;;;;2.97;1.20;;;20.30;52.20;;;;;;5082111;28;20043;-68
2024/02/10 03:12:36;;;;;;;2.03;1.20;;;20.40;52.30;;;;;;5079905;28;20039;-66
2024/02/10 03:15:02;;;;;;;1.63;1.10;;;20.40;52.30;;;;;;5079627;28;20020;-66
2024/02/10 03:17:30;;;;;;;1.80;1.10;;;20.30;52.20;;;;;;5078796;28;20035;-69
2024/02/10 03:20:00;;;;;;;1.60;1.00;;;20.30;52.20;;;;;;5079793;28;20035;-66
2024/02/10 03:22:26;;;;;;;1.90;1.20;;;20.30;52.20;;;;;;5079964;28;20024;-68
2024/02/10 03:24:53;;;;;;;1.52;1.05;;;20.30;52.30;;;;;;5078888;28;20046;-67
2024/02/10 03:27:19;;;;;;;1.65;1.00;;;20.30;52.30;;;;;;5078843;28;20073;-68
2024/02/10 03:29:45;;;;;;;2.00;1.05;;;20.30;52.80;;;;;;5078027;28;20043;-60
2024/02/10 03:32:12;;;;;;;1.95;1.10;;;20.30;52.20;;;;;;5081438;28;20025;-61
2024/02/10 03:34:38;;;;;;;2.20;1.20;;;20.30;52.20;;;;;;5079463;28;20028;-61
2024/02/10 03:37:04;;;;;;;2.20;1.30;;;20.30;52.30;;;;;;5078380;28;20166;-61
2024/02/10 03:39:30;;;;;;;1.77;1.13;;;20.30;52.20;;;;;;5077198;28;20679;-61
2024/02/10 03:41:55;;;;;;;1.60;1.10;;;20.30;52.30;;;;;;5079112;28;20050;-62
2024/02/10 03:44:22;;;;;;;1.60;1.08;;;20.30;52.30;;;;;;5070942;28;20116;-62
2024/02/10 03:46:53;;;;;;;1.90;1.10;;;20.20;52.20;;;;;;5077799;28;20357;-62
2024/02/10 03:49:18;;;;;;;2.33;1.25;;;20.30;52.30;;;;;;5079297;28;20463;-61
2024/02/10 03:51:44;;;;;;;1.75;1.13;;;20.20;52.30;;;;;;5075250;28;20075;-62
2024/02/10 03:54:12;;;;;;;2.28;1.10;;;20.20;52.30;;;;;;5077185;28;20469;-62
2024/02/10 03:56:41;;;;;;;1.65;1.10;;;20.20;52.80;;;;;;5075917;28;20039;-62
2024/02/10 03:59:07;;;;;;;1.85;1.00;;;20.20;52.30;;;;;;5075633;28;20032;-62
2024/02/10 04:01:34;;;;;;;2.00;1.30;;;20.20;52.20;;;;;;5079223;28;20024;-61
2024/02/10 04:04:02;;;;;;;2.40;1.30;;;20.20;52.30;;;;;;5077024;28;20506;-61
2024/02/10 04:06:28;;;;;;;1.73;1.13;;;20.20;52.30;;;;;;5076146;28;20044;-62
2024/02/10 04:08:54;;;;;;;1.65;1.10;;;20.20;52.30;;;;;;5078698;28;20484;-60
2024/02/10 04:11:20;;;;;;;2.13;1.27;;;20.20;52.80;;;;;;5078553;28;20083;-61
2024/02/10 04:13:47;;;;;;;1.60;1.17;;;20.20;52.30;;;;;;5077889;28;20150;-61
2024/02/10 04:16:13;;;;;;;2.00;1.20;;;20.20;52.30;;;;;;5076399;28;20542;-60
2024/02/10 04:18:42;;;;;;;1.75;1.10;;;20.20;52.30;;;;;;5077582;28;20043;-68
2024/02/10 04:21:09;;;;;;;1.90;1.25;;;20.20;52.30;;;;;;5078121;28;20427;-66
2024/02/10 04:23:37;;;;;;;1.80;1.10;;;20.10;52.20;;;;;;5077557;28;20464;-67
2024/02/10 04:26:05;;;;;;;1.70;1.10;;;20.20;52.30;;;;;;5077441;28;20028;-67
2024/02/10 04:28:31;;;;;;;1.85;1.20;;;20.20;52.30;;;;;;5083843;28;20032;-67
2024/02/10 04:30:57;;;;;;;1.80;1.10;;;20.20;52.30;;;;;;5082014;28;20024;-67
2024/02/10 04:33:23;;;;;;;1.90;1.30;;;20.20;52.30;;;;;;5083797;28;20528;-67
2024/02/10 04:35:49;;;;;;;3.08;1.30;;;20.20;52.30;;;;;;5082216;28;20123;-68
2024/02/10 04:38:15;;;;;;;1.73;1.20;;;20.10;52.80;;;;;;5082075;28;20056;-67
2024/02/10 04:40:40;;;;;;;1.80;1.00;;;20.10;52.30;;;;;;5083531;28;20133;-61
2024/02/10 04:43:06;;;;;;;2.08;0.95;;;20.10;52.30;;;;;;5083041;28;20159;-61
2024/02/10 04:45:34;;;;;;;1.90;1.10;;;20.10;52.80;;;;;;5082253;28;20043;-62
2024/02/10 04:48:01;;;;;;;1.77;1.05;;;20.10;52.30;;;;;;5083409;28;20025;-60
2024/02/10 04:50:30;;;;;;;1.35;0.90;;;20.10;52.30;;;;;;5082534;28;20103;-64
2024/02/10 04:52:59;;;;;;;1.77;1.15;;;20.10;52.30;;;;;;5082072;28;20493;-64
2024/02/10 04:55:25;;;;;;;1.67;1.00;;;20.10;52.30;;;;;;5080037;28;20063;-64
2024/02/10 04:57:52;;;;;;;2.00;1.15;;;20.10;52.30;;;;;;5082628;28;20028;-63
2024/02/10 05:00:19;;;;;;;1.90;1.10;;;20.10;52.30;;;;;;5080354;28;20590;-64
2024/02/10 05:02:46;;;;;;;1.48;0.90;;;20.10;52.30;;;;;;5082162;28;20485;-64
2024/02/10 05:05:13;;;;;;;2.47;1.30;;;20.10;52.80;;;;;;5082347;28;20024;-64
2024/02/10 05:07:46;;;;;;;1.67;1.02;;;20.10;52.30;;;;;;5080897;28;20025;-64
2024/02/10 05:10:20;;;;;;;1.48;0.90;;;20.10;52.30;;;;;;5081438;28;20527;-64
2024/02/10 05:12:47;;;;;;;1.42;0.90;;;20.00;52.20;;;;;;5082459;28;20093;-63
2024/02/10 05:15:23;;;;;;;1.70;1.13;;;20.10;52.30;;;;;;5080682;28;20021;-64
2024/02/10 05:17:52;;;;;;;1.67;1.10;;;20.10;52.30;;;;;;5081508;28;20058;-63
2024/02/10 05:20:21;;;;;;;1.80;1.00;;;20.10;52.30;;;;;;5080483;28;20032;-63
2024/02/10 05:22:47;;;;;;;1.80;1.10;;;20.10;52.30;;;;;;5079724;28;20085;-63
2024/02/10 05:25:14;;;;;;;1.60;1.13;;;20.00;52.80;;;;;;5080751;28;20052;-64
2024/02/10 05:27:44;;;;;;;1.70;1.17;;;20.10;52.30;;;;;;5081432;28;20490;-63
2024/02/10 05:30:14;;;;;;;1.95;1.10;;;20.00;52.20;;;;;;5082561;28;20036;-66
2024/02/10 05:32:44;;;;;;;1.60;1.00;;;20.10;52.30;;;;;;5080034;28;20023;-65
2024/02/10 05:35:14;;;;;;;1.38;0.90;;;20.00;52.20;;;;;;5082248;28;20466;-65
2024/02/10 05:37:40;;;;;;;1.83;1.20;;;20.00;52.80;;;;;;5079709;28;20111;-66
2024/02/10 05:40:10;;;;;;;2.03;1.15;;;20.00;52.30;;;;;;5081509;28;20421;-66
2024/02/10 05:42:35;;;;;;;1.73;1.08;;;20.00;52.30;;;;;;5080495;28;20111;-66
2024/02/10 05:45:06;;;;;;;1.95;1.10;;;20.00;52.30;;;;;;5081992;28;20123;-66
2024/02/10 05:47:35;;;;;;;2.40;1.10;;;20.00;52.30;;;;;;5080743;28;20123;-65
2024/02/10 05:50:05;;;;;;;1.65;1.10;;;20.00;52.30;;;;;;5096051;28;20028;-64
2024/02/10 05:52:38;;;;;;;1.92;1.30;;;20.00;52.30;;;;;;5077691;28;20500;-64
2024/02/10 05:55:04;;;;;;;1.50;1.00;;;20.00;52.30;;;;;;5080249;28;20029;-63
2024/02/10 05:57:30;;;;;;;1.40;1.10;;;20.00;52.30;;;;;;5081673;28;20037;-63
2024/02/10 05:59:55;;;;;;;1.73;1.00;;;20.00;52.30;;;;;;5080020;28;20442;-63
2024/02/10 06:02:21;;;;;;;2.40;1.17;;;20.00;52.30;;;;;;5073977;28;20464;-61
2024/02/10 06:04:50;;;;;;;2.03;1.20;;;20.00;52.30;;;;;;5080418;28;20511;-62
2024/02/10 06:07:18;;;;;;;1.60;1.02;;;20.00;52.30;;;;;;5070221;28;20038;-60
2024/02/10 06:09:44;;;;;;;2.00;1.10;;;20.00;52.30;;;;;;5080270;28;20032;-63
2024/02/10 06:12:10;;;;;;;1.73;1.08;;;20.00;52.30;;;;;;5078722;28;20035;-61
2024/02/10 06:14:37;;;;;;;2.40;1.20;;;20.00;52.30;;;;;;5075104;28;20059;-61
2024/02/10 06:17:03;;;;;;;1.63;1.00;;;20.00;52.30;;;;;;5079277;28;20024;-61
2024/02/10 06:19:29;;;;;;;1.52;1.00;;;20.00;52.30;;;;;;5078188;28;20073;-62
2024/02/10 06:21:55;;;;;;;2.75;1.08;;;20.00;52.30;;;;;;5077077;28;20119;-62
2024/02/10 06:24:20;;;;;;;1.38;1.00;;;20.00;52.30;;;;;;5079314;28;20384;-60
2024/02/10 06:26:49;;;;;;;2.17;1.27;;;20.00;52.30;;;;;;5080860;28;20052;-61
2024/02/10 06:29:15;;;;;;;2.03;1.00;;;20.00;52.30;;;;;;5069991;28;20042;-62
2024/02/10 06:31:44;;;;;;;2.92;1.13;;;20.00;52.40;;;;;;5080076;28;20024;-62
2024/02/10 06:34:10;;;;;;;1.92;1.10;;;20.00;52.40;;;;;;5078118;28;20024;-61
2024/02/10 06:36:35;;;;;;;1.90;1.10;;;20.00;52.40;;;;;;5078788;28;20028;-64
2024/02/10 06:39:01;;;;;;;2.25;1.10;;;20.00;52.40;;;;;;5062507;28;20078;-66
2024/02/10 06:41:27;;;;;;;1.80;1.05;;;20.00;52.40;;;;;;5079015;28;20021;-66
2024/02/10 06:43:53;;;;;;;1.90;1.00;;;20.00;52.40;;;;;;5082315;28;20032;-66
2024/02/10 06:46:19;;;;;;;1.50;1.02;;;20.00;52.50;;;;;;5079842;28;20090;-66
2024/02/10 06:48:46;;;;;;;1.50;0.95;;;20.00;52.50;;;;;;5081511;28;20098;-66
2024/02/10 06:51:12;;;;;;;1.73;1.00;;;20.00;52.50;;;;;;5076900;28;20043;-66
2024/02/10 06:53:38;;;;;;;1.70;1.00;;;20.00;52.50;;;;;;5079183;28;20101;-65
2024/02/10 06:56:04;;;;;;;1.65;1.00;;;20.00;52.50;;;;;;5081072;28;20604;-65
2024/02/10 06:58:30;;;;;;;1.63;1.10;;;20.00;52.50;;;;;;5078400;28;20032;-66
2024/02/10 07:00:58;;;;;;;1.65;1.10;;;20.00;52.50;;;;;;5080245;28;20024;-66
2024/02/10 07:03:24;;;;;;;1.58;0.90;;;20.00;52.50;;;;;;5070422;28;20536;-65
2024/02/10 07:05:49;;;;;;;1.30;0.95;;;19.90;52.40;;;;;;5076661;28;20132;-65
2024/02/10 07:08:18;;;;;;;1.95;1.17;;;19.90;52.40;;;;;;5077966;28;20492;-66
2024/02/10 07:10:47;;;;;;;2.13;1.17;;;19.90;52.40;;;;;;5080488;28;20047;-61
2024/02/10 07:13:14;;;;;;;1.38;0.98;;;20.00;52.50;;;;;;5079055;28;20016;-62
2024/02/10 07:15:41;;;;;;;1.20;0.80;;;19.90;52.40;;;;;;5080289;28;20020;-62
2024/02/10 07:18:07;;;;;;;1.40;1.00;;;19.90;52.40;;;;;;5079177;28;20365;-61
2024/02/10 07:20:34;;;;;;;1.58;1.00;;;19.90;52.40;;;;;;5079422;28;20024;-62
2024/02/10 07:23:03;;;;;;;1.33;0.90;;;19.90;52.40;;;;;;5078679;28;20081;-61
2024/02/10 07:25:32;;;;;;;1.60;1.00;;;19.90;52.40;;;;;;5077901;28;20153;-62
2024/02/10 07:28:01;;;;;;;1.42;0.93;;;19.90;52.40;;;;;;5061806;28;20027;-61
2024/02/10 07:30:32;;;;;;;1.60;0.98;;;19.90;52.50;;;;;;5079934;28;20039;-62
2024/02/10 07:33:08;;;;;;;1.35;0.90;;;19.90;52.50;;;;;;5079443;28;20028;-62
2024/02/10 07:35:34;;;;;;;1.50;0.90;;;19.90;52.40;;;;;;5078725;28;20456;-61
2024/02/10 07:38:02;;;;;;;1.60;1.00;;;19.90;52.40;;;;;;5077920;28;20384;-61
2024/02/10 07:40:28;;;;;;;1.55;1.00;;;19.90;52.90;;;;;;5081534;28;20203;-62
2024/02/10 07:42:54;;;;;;;2.50;1.00;;;19.90;52.40;;;;;;5080729;28;20094;-61
2024/02/10 07:45:22;;;;;;;1.63;1.13;;;19.90;52.50;;;;;;5078819;28;20037;-62
2024/02/10 07:47:49;;;;;;;1.92;1.20;;;19.90;52.40;;;;;;5078574;28;20445;-62
2024/02/10 07:50:15;;;;;;;2.08;1.00;;;19.90;52.40;;;;;;5078947;28;20166;-64
2024/02/10 07:52:42;;;;;;;2.30;1.20;;;19.90;52.50;;;;;;5078145;28;20435;-64
2024/02/10 07:55:12;;;;;;;1.77;0.95;;;19.90;52.40;;;;;;5077751;28;20525;-65
2024/02/10 07:57:39;;;;;;;1.58;0.90;;;19.90;52.40;;;;;;5076708;28;20389;-64
2024/02/10 08:00:09;;;;;;;1.63;0.98;;;19.90;53.00;;;;;;5078795;28;20420;-64
2024/02/10 08:02:35;;;;;;;1.95;1.20;;;19.90;52.40;;;;;;5078458;28;20063;-63
2024/02/10 08:05:01;;;;;;;1.38;0.90;;;19.90;52.40;;;;;;5080388;28;20035;-64
2024/02/10 08:07:30;;;;;;;1.40;0.93;;;19.90;52.50;;;;;;5076354;28;20046;-64
2024/02/10 08:09:57;;;;;;;1.50;1.05;;;19.90;52.50;;;;;;5077119;28;20032;-67
2024/02/10 08:12:23;;;;;;;1.85;1.10;;;19.90;52.50;;;;;;5076824;28;20028;-67
2024/02/10 08:14:51;;;;;;;1.55;0.93;;;19.90;53.00;;;;;;5079616;28;20058;-69
2024/02/10 08:17:20;;;;;;;1.45;0.90;;;19.90;52.50;;;;;;5080210;28;20037;-67
2024/02/10 08:19:53;;;;;;;1.85;1.10;;;19.90;52.50;;;;;;5079114;28;20443;-66
2024/02/10 08:22:19;;;;;;;1.30;0.90;;;19.90;52.50;;;;;;5079731;28;20119;-66
2024/02/10 08:24:47;;;;;;;1.67;0.90;;;19.80;52.50;;;;;;5076480;28;20744;-66
2024/02/10 08:27:15;;;;;;;1.63;1.00;;;19.90;52.50;;;;;;5077714;28;20028;-66
2024/02/10 08:29:42;;;;;;;2.08;1.08;;;19.80;52.50;;;;;;5077908;28;20054;-67
2024/02/10 08:32:13;;;;;;;1.75;0.98;;;19.80;52.50;;;;;;5079348;28;20028;-66
2024/02/10 08:34:42;;;;;;;1.25;0.95;;;19.80;52.50;;;;;;5077691;28;20028;-67
2024/02/10 08:37:14;;;;;;;1.38;0.90;;;19.80;52.50;;;;;;5076319;28;20016;-67
2024/02/10 08:39:43;;;;;;;1.70;1.00;;;19.90;52.60;;;;;;5077609;28;20043;-68
2024/02/10 08:42:12;;;;;;;1.75;1.00;;;19.90;52.60;;;;;;5062197;28;20032;-68
2024/02/10 08:44:38;;;;;;;1.50;0.90;;;19.80;52.50;;;;;;5078603;28;20037;-67
2024/02/10 08:47:07;;;;;;;1.92;1.00;;;19.80;52.50;;;;;;5077488;28;20480;-68
2024/02/10 08:49:36;;;;;;;1.70;1.20;;;19.80;52.50;;;;;;5078595;28;20032;-68
2024/02/10 08:52:15;;;;;;;1.80;1.10;;;19.80;52.50;;;;;;5077861;28;20556;-67
2024/02/10 08:54:45;;;;;;;2.22;1.13;;;19.80;52.60;;;;;;5076600;28;20404;-69
2024/02/10 08:57:10;;;;;;;;;;;19.80;52.50;;;;;;5079617;28;20391;-67
2024/02/10 08:59:41;;;;;;;1.65;1.10;;;19.80;52.60;;;;;;5078738;28;19908;-64
2024/02/10 09:02:07;;;;;;;1.60;1.00;;;19.80;52.50;;;;;;5078290;28;20472;-64
2024/02/10 09:04:39;;;;;;;1.35;1.00;;;19.80;52.60;;;;;;5078876;28;20028;-64
2024/02/10 09:07:06;;;;;;;1.98;1.25;;;19.80;52.60;;;;;;5079025;28;20457;-64
2024/02/10 09:09:33;;;;;;;2.58;1.25;;;19.80;53.10;;;;;;5076676;28;20024;-64
2024/02/10 09:11:58;;;;;;;1.42;0.95;;;19.80;52.60;;;;;;5078611;28;20456;-65
2024/02/10 09:14:24;;;;;;;2.90;1.23;;;19.80;52.60;;;;;;5082884;28;20097;-64
2024/02/10 09:16:50;;;;;;;1.95;1.13;;;19.80;52.60;;;;;;5081042;28;20028;-64
2024/02/10 09:19:18;;;;;;;2.63;1.20;;;19.80;52.60;;;;;;5081810;28;20035;-66
2024/02/10 09:21:44;;;;;;;1.77;1.10;;;19.80;52.60;;;;;;5078824;28;20029;-65
2024/02/10 09:24:13;;;;;;;2.40;1.30;;;19.80;52.60;;;;;;5081188;28;20483;-65
2024/02/10 09:26:43;;;;;;;2.03;1.20;;;19.80;52.60;;;;;;5081732;28;20138;-66
2024/02/10 09:29:08;;;;;;;1.88;1.05;;;19.80;52.60;;;;;;5081556;28;20509;-63
2024/02/10 09:31:34;;;;;;;1.80;1.13;;;19.80;52.60;;;;;;5081132;28;20112;-62
2024/02/10 09:34:01;;;;;;;2.67;1.30;;;19.80;52.60;;;;;;5080529;28;20031;-61
2024/02/10 09:36:28;;;;;;;2.03;1.20;;;19.80;52.60;;;;;;5072038;28;20020;-62
2024/02/10 09:38:54;;;;;;;2.13;1.20;;;19.80;52.60;;;;;;5080820;28;20028;-62
2024/02/10 09:41:20;;;;;;;1.88;1.10;;;19.80;52.60;;;;;;5082779;28;20043;-62
2024/02/10 09:43:48;;;;;;;2.78;1.40;;;19.80;52.60;;;;;;5064209;28;20032;-62
2024/02/10 09:46:14;;;;;;;2.35;1.33;;;19.80;52.60;;;;;;5065831;28;20043;-63
2024/02/10 09:48:51;;;;;;;2.58;1.40;;;19.80;52.60;;;;;;5080511;28;20472;-61
2024/02/10 09:51:17;;;;;;;2.70;1.40;;;19.80;52.60;;;;;;5082657;28;20027;-61
2024/02/10 09:53:43;;;;;;;2.50;1.30;;;19.80;52.60;;;;;;5092380;28;20022;-61
2024/02/10 09:56:14;;;;;;;2.65;1.35;;;19.80;52.50;;;;;;5080843;28;20028;-62
2024/02/10 09:58:46;;;;;;;2.13;1.30;;;19.80;52.60;;;;;;5081722;28;20024;-61
2024/02/10 10:01:13;;;;;;;4.07;1.30;;;19.80;52.60;;;;;;5080468;28;20167;-63
2024/02/10 10:03:39;;;;;;;2.28;1.25;;;19.80;52.60;;;;;;5063771;28;20028;-63
2024/02/10 10:06:10;;;;;;;2.47;1.40;;;19.80;52.60;;;;;;5080901;28;20162;-61
2024/02/10 10:08:39;;;;;;;3.47;2.20;;;19.80;52.60;;;;;;5079218;28;20032;-61
2024/02/10 10:11:08;;;;;;;;;;;19.80;52.60;;;;;;5078582;28;20111;-61
2024/02/10 10:13:38;;;;;;;2.95;1.73;;;19.80;52.60;;;;;;5080336;28;20029;-62
2024/02/10 10:16:07;;;;;;;2.50;1.17;;;19.80;52.50;;;;;;5080468;28;20039;-63
2024/02/10 10:18:35;;;;;;;;;;;19.80;52.50;;;;;;5079097;28;20028;-62
2024/02/10 10:21:04;;;;;;;1.85;1.20;;;19.80;52.60;;;;;;5079193;28;20375;-61
2024/02/10 10:23:31;;;;;;;2.15;1.17;;;19.80;52.50;;;;;;5075514;28;20377;-61
2024/02/10 10:25:57;;;;;;;2.28;1.10;;;19.80;52.60;;;;;;5078340;28;20028;-62
2024/02/10 10:28:23;;;;;;;3.10;1.33;;;19.80;52.60;;;;;;5078650;28;20091;-60
2024/02/10 10:30:49;;;;;;;2.17;1.10;;;19.80;52.60;;;;;;5080594;28;20060;-66
2024/02/10 10:33:20;;;;;;;2.20;1.25;;;19.80;52.60;;;;;;5080243;28;20028;-65
2024/02/10 10:35:46;;;;;;;1.95;1.25;;;19.80;52.60;;;;;;5078354;28;20790;-66
2024/02/10 10:38:12;;;;;;;2.30;1.20;;;19.80;52.60;;;;;;5079292;28;20499;-66
2024/02/10 10:40:38;;;;;;;2.17;1.20;;;19.80;53.10;;;;;;5079543;28;20505;-64
2024/02/10 10:43:10;;;;;;;2.38;1.33;;;19.80;52.60;;;;;;5080942;28;20086;-64
2024/02/10 10:45:39;;;;;;;2.05;1.30;;;19.80;52.60;;;;;;5072350;28;20031;-64
2024/02/10 10:48:08;;;;;;;2.10;1.20;;;19.80;52.60;;;;;;5059994;28;20040;-64
2024/02/10 10:50:34;;;;;;;2.57;1.30;;;19.80;53.10;;;;;;5080890;28;20111;-64
2024/02/10 10:53:09;;;;;;;2.78;1.20;;;19.80;52.60;;;;;;5081973;28;20823;-64
2024/02/10 10:55:51;;;;;;;2.60;1.38;;;19.80;52.60;;;;;;5078182;28;20063;-64
2024/02/10 10:58:23;;;;;;;1.63;1.08;;;19.80;52.70;;;;;;5079478;28;20024;-65
2024/02/10 11:00:50;;;;;;;2.60;1.27;;;19.80;52.70;;;;;;5079887;28;20534;-64
2024/02/10 11:03:17;;;;;;;2.85;1.42;;;19.80;52.70;;;;;;5081955;28;20487;-64
2024/02/10 11:05:46;;;;;;;1.92;1.17;;;19.80;52.70;;;;;;5080167;28;20024;-64
2024/02/10 11:08:25;;;;;;;1.90;1.33;;;19.80;52.70;;;;;;5095260;28;20024;-64
2024/02/10 11:11:01;;;;;;;2.55;1.40;;;19.80;52.80;;;;;;5079086;28;20076;-64
2024/02/10 11:13:29;;;;;;;2.72;1.33;;;19.80;52.90;;;;;;5079918;28;20031;-65
2024/02/10 11:16:03;;;;;;;2.20;1.23;;;19.80;52.80;;;;;;5079124;28;20464;-64
2024/02/10 11:18:33;;;;;;;2.20;1.20;;;19.80;52.90;;;;;;5079786;28;20507;-64
2024/02/10 11:21:09;;;;;;;4.35;2.20;;;19.80;52.90;;;;;;5078676;28;20055;-63
2024/02/10 11:23:34;;;;;;;1.95;1.23;;;19.80;52.90;;;;;;5081387;28;20086;-61
2024/02/10 11:26:01;;;;;;;2.28;1.40;;;19.80;52.90;;;;;;5077402;28;20028;-62
2024/02/10 11:28:32;;;;;;;1.92;1.20;;;19.80;53.40;;;;;;5077330;28;20095;-62
2024/02/10 11:31:09;;;;;;;3.38;1.20;;;19.80;53.00;;;;;;5077743;28;20078;-62
2024/02/10 11:33:35;;;;;;;2.20;1.30;;;19.80;53.00;;;;;;5078580;28;20362;-62
2024/02/10 11:36:02;;;;;;;2.35;1.17;;;19.80;53.00;;;;;;5079155;28;20107;-63
2024/02/10 11:38:28;;;;;;;1.92;1.20;;;19.80;53.00;;;;;;5078792;28;20107;-64
2024/02/10 11:40:54;;;;;;;2.15;1.20;;;19.80;53.00;;;;;;5076903;28;20452;-67
2024/02/10 11:43:19;;;;;;;3.35;1.38;;;19.80;53.00;;;;;;5093845;28;20323;-67
2024/02/10 11:45:45;;;;;;;2.97;1.20;;;19.80;53.00;;;;;;5080193;28;20036;-66
2024/02/10 11:48:12;;;;;;;2.53;1.20;;;19.80;53.00;;;;;;5078060;28;20024;-69
2024/02/10 11:50:42;;;;;;;2.78;1.75;;;19.80;53.00;;;;;;5080557;28;20074;-61
2024/02/10 11:53:12;;;;;;;2.55;1.40;;;19.80;53.10;;;;;;5085861;28;20025;-62
2024/02/10 11:55:41;;;;;;;2.28;1.40;;;19.90;53.30;;;;;;5083811;28;20081;-61
2024/02/10 11:58:09;;;;;;;2.08;1.42;;;19.90;53.70;;;;;;5079091;28;20029;-62
2024/02/10 12:00:35;;;;;;;3.13;1.73;;;19.90;53.40;;;;;;5082801;28;20024;-62
2024/02/10 12:03:01;;;;;;;3.97;1.60;;;20.00;53.30;;;;;;5084647;28;20035;-63
2024/02/10 12:05:29;;;;;;;3.25;1.95;;;20.00;53.20;;;;;;5086553;28;20080;-60
2024/02/10 12:07:55;;;;;;;3.00;1.77;;;20.00;53.10;;;;;;5087951;28;20503;-62
2024/02/10 12:10:23;;;;;;;2.05;1.25;;;20.00;53.10;;;;;;5076905;28;20032;-62
2024/02/10 12:12:53;;;;;;;3.20;1.50;;;20.00;53.20;;;;;;5079041;28;20044;-62
2024/02/10 12:15:19;;;;;;;3.42;1.25;;;20.00;53.20;;;;;;5078351;28;20244;-63
2024/02/10 12:17:47;;;;;;;2.00;1.20;;;20.10;53.20;;;;;;5077863;28;20028;-63
2024/02/10 12:20:18;;;;;;;2.53;1.40;;;20.10;53.10;;;;;;5076720;28;20112;-63
2024/02/10 12:22:46;;;;;;;3.10;1.50;;;20.10;53.00;;;;;;5077159;28;20024;-62
2024/02/10 12:25:11;;;;;;;2.70;1.50;;;20.20;53.00;;;;;;5076214;28;20456;-62
2024/02/10 12:27:37;;;;;;;2.95;1.63;;;20.20;52.90;;;;;;5078236;28;20025;-61
2024/02/10 12:30:04;;;;;;;3.17;1.20;;;20.20;52.90;;;;;;5077251;28;20028;-69
2024/02/10 12:32:32;;;;;;;2.78;1.42;;;20.20;52.90;;;;;;5079840;28;20032;-69
2024/02/10 12:35:00;;;;;;;3.97;1.40;;;20.20;52.80;;;;;;5076137;28;20066;-70
2024/02/10 12:37:26;;;;;;;2.92;1.38;;;20.20;52.80;;;;;;5070634;28;20020;-70
2024/02/10 12:39:52;;;;;;;2.63;1.60;;;20.20;52.80;;;;;;5079042;28;20384;-69
2024/02/10 12:42:20;;;;;;;2.35;1.40;;;20.20;52.70;;;;;;5081346;28;20030;-69
2024/02/10 12:44:47;;;;;;;2.50;1.40;;;20.20;52.70;;;;;;5079762;28;20051;-70
2024/02/10 12:47:12;;;;;;;2.63;1.50;;;20.30;52.70;;;;;;5072820;28;20081;-70
2024/02/10 12:49:38;;;;;;;2.38;1.30;;;20.30;52.70;;;;;;5083964;28;20063;-66